createdAt,value
2018-09-23T00:00:43.449Z,92.60
2018-09-23T00:02:47.537Z,92.60
2018-09-23T00:04:52.901Z,92.60
2018-09-23T00:06:56.970Z,92.70
2018-09-23T00:09:00.930Z,92.90
2018-09-23T00:11:06.749Z,92.70
2018-09-23T00:13:13.528Z,92.60
2018-09-23T00:15:19.320Z,92.60
2018-09-23T00:17:23.719Z,92.50
2018-09-23T00:19:27.698Z,92.40
2018-09-23T00:21:32.420Z,92.50
2018-09-23T00:23:36.399Z,92.40
2018-09-23T00:25:43.574Z,92.50
2018-09-23T00:27:48.285Z,92.50
2018-09-23T00:29:53.261Z,92.60
2018-09-23T00:31:59.027Z,92.60
2018-09-23T00:34:03.417Z,92.60
2018-09-23T00:36:08.205Z,92.50
2018-09-23T00:38:12.425Z,92.60
2018-09-23T00:40:17.586Z,92.60
2018-09-23T00:42:22.921Z,92.50
2018-09-23T00:44:27.009Z,92.50
2018-09-23T00:46:31.934Z,92.60
2018-09-23T00:48:36.391Z,92.80
2018-09-23T00:50:40.873Z,92.80
2018-09-23T00:52:45.284Z,92.80
2018-09-23T00:54:50.347Z,92.80
2018-09-23T00:56:54.813Z,92.50
2018-09-23T00:59:00.842Z,92.50
2018-09-23T01:01:04.866Z,92.40
2018-09-23T01:03:09.305Z,92.50
2018-09-23T01:05:13.681Z,92.40
2018-09-23T01:07:18.705Z,92.40
2018-09-23T01:09:23.698Z,92.40
2018-09-23T01:11:29.717Z,92.50
2018-09-23T01:13:34.015Z,92.40
2018-09-23T01:15:38.759Z,92.30
2018-09-23T01:17:43.752Z,92.10
2018-09-23T01:19:49.498Z,92.00
2018-09-23T01:21:53.911Z,92.00
2018-09-23T01:23:59.724Z,92.00
2018-09-23T01:26:03.813Z,92.00
2018-09-23T01:28:08.761Z,92.30
2018-09-23T01:30:16.051Z,92.80
2018-09-23T01:32:20.098Z,92.80
2018-09-23T01:34:25.165Z,93.60
2018-09-23T01:36:29.205Z,93.10
2018-09-23T01:38:33.232Z,93.10
2018-09-23T01:40:38.830Z,92.90
2018-09-23T01:42:44.490Z,93.50
2018-09-23T01:44:48.689Z,93.40
2018-09-23T01:46:54.028Z,93.30
2018-09-23T01:49:00.049Z,93.30
2018-09-23T01:51:05.210Z,93.80
2018-09-23T01:53:11.473Z,94.50
2018-09-23T01:55:16.476Z,94.60
2018-09-23T01:57:20.589Z,94.50
2018-09-23T01:59:25.054Z,94.50
2018-09-23T02:01:29.204Z,94.50
2018-09-23T02:03:33.211Z,94.20
2018-09-23T02:05:39.137Z,93.90
2018-09-23T02:07:44.295Z,94.00
2018-09-23T02:09:48.329Z,93.60
2018-09-23T02:11:53.691Z,93.60
2018-09-23T02:13:57.721Z,93.70
2018-09-23T02:16:02.674Z,93.70
2018-09-23T02:18:07.147Z,93.40
2018-09-23T02:20:11.209Z,93.20
2018-09-23T02:22:15.338Z,93.30
2018-09-23T02:24:19.368Z,93.40
2018-09-23T02:26:23.291Z,93.30
2018-09-23T02:28:27.212Z,93.40
2018-09-23T02:30:32.516Z,93.60
2018-09-23T02:32:36.532Z,93.80
2018-09-23T02:34:40.494Z,93.60
2018-09-23T02:36:44.469Z,93.60
2018-09-23T02:38:48.481Z,93.50
2018-09-23T02:40:52.430Z,94.10
2018-09-23T02:42:56.921Z,94.00
2018-09-23T02:45:01.516Z,94.10
2018-09-23T02:47:05.506Z,93.90
2018-09-23T02:49:09.460Z,94.60
2018-09-23T02:51:13.393Z,94.40
2018-09-23T02:53:17.384Z,94.80
2018-09-23T02:55:21.652Z,95.40
2018-09-23T02:57:25.615Z,95.60
2018-09-23T02:59:29.583Z,95.50
2018-09-23T03:01:35.060Z,95.80
2018-09-23T03:03:38.984Z,95.60
2018-09-23T03:05:45.061Z,95.80
2018-09-23T03:07:49.424Z,95.80
2018-09-23T03:09:53.389Z,95.60
2018-09-23T03:11:57.422Z,95.20
2018-09-23T03:14:01.728Z,95.30
2018-09-23T03:16:06.483Z,95.10
2018-09-23T03:18:10.448Z,95.10
2018-09-23T03:20:14.694Z,95.00
2018-09-23T03:22:18.641Z,95.60
2018-09-23T03:24:22.587Z,95.50
2018-09-23T03:26:26.812Z,95.30
2018-09-23T03:28:31.579Z,95.20
2018-09-23T03:30:35.543Z,95.20
2018-09-23T03:32:39.819Z,95.20
2018-09-23T03:34:43.752Z,95.20
2018-09-23T03:36:47.667Z,95.10
2018-09-23T03:38:52.007Z,95.10
2018-09-23T03:40:55.952Z,95.10
2018-09-23T03:43:00.022Z,95.10
2018-09-23T03:45:04.456Z,95.40
2018-09-23T03:47:08.385Z,95.60
2018-09-23T03:49:12.448Z,95.60
2018-09-23T03:51:16.775Z,95.80
2018-09-23T03:53:20.702Z,95.80
2018-09-23T03:55:24.653Z,95.80
2018-09-23T03:57:28.693Z,96.00
2018-09-23T03:59:32.642Z,96.00
2018-09-23T04:01:37.417Z,96.00
2018-09-23T04:03:42.645Z,95.90
2018-09-23T04:05:47.531Z,95.90
2018-09-23T04:07:51.810Z,96.00
2018-09-23T04:09:55.832Z,96.00
2018-09-23T04:11:59.870Z,96.10
2018-09-23T04:14:04.097Z,96.20
2018-09-23T04:16:09.760Z,96.40
2018-09-23T04:18:14.762Z,96.50
2018-09-23T04:20:18.740Z,96.80
2018-09-23T04:22:23.124Z,97.00
2018-09-23T04:24:28.069Z,97.00
2018-09-23T04:26:32.085Z,97.30
2018-09-23T04:28:36.399Z,97.50
2018-09-23T04:30:40.305Z,97.60
2018-09-23T04:32:44.233Z,97.70
2018-09-23T04:34:48.615Z,97.80
2018-09-23T04:36:52.556Z,97.80
2018-09-23T04:38:56.554Z,97.80
2018-09-23T04:41:01.932Z,97.80
2018-09-23T04:43:05.958Z,98.30
2018-09-23T04:45:13.518Z,97.90
2018-09-23T04:47:18.060Z,97.90
2018-09-23T04:49:23.207Z,98.00
2018-09-23T04:51:27.156Z,98.10
2018-09-23T04:53:31.556Z,98.40
2018-09-23T04:55:37.511Z,98.20
2018-09-23T04:57:42.154Z,98.20
2018-09-23T04:59:48.999Z,98.50
2018-09-23T05:01:53.056Z,98.50
2018-09-23T05:03:57.518Z,98.50
2018-09-23T05:06:02.747Z,98.50
2018-09-23T05:08:07.464Z,98.30
2018-09-23T05:10:11.521Z,98.20
2018-09-23T05:12:17.789Z,98.30
2018-09-23T05:14:21.792Z,98.20
2018-09-23T05:16:26.646Z,98.00
2018-09-23T05:18:32.676Z,98.10
2018-09-23T05:20:36.700Z,98.00
2018-09-23T05:22:40.646Z,98.10
2018-09-23T05:24:45.022Z,97.90
2018-09-23T05:26:49.313Z,97.80
2018-09-23T05:28:53.256Z,97.90
2018-09-23T05:30:57.581Z,97.80
2018-09-23T05:33:02.274Z,97.60
2018-09-23T05:35:07.461Z,97.50
2018-09-23T05:37:11.986Z,97.80
2018-09-23T05:39:16.513Z,97.90
2018-09-23T05:41:21.101Z,98.00
2018-09-23T05:43:25.457Z,98.00
2018-09-23T05:45:29.590Z,97.90
2018-09-23T05:47:33.537Z,97.60
2018-09-23T05:49:37.887Z,97.50
2018-09-23T05:51:41.766Z,97.50
2018-09-23T05:53:45.715Z,97.60
2018-09-23T05:55:50.142Z,97.60
2018-09-23T05:57:55.027Z,97.40
2018-09-23T06:00:00.358Z,97.20
2018-09-23T06:02:04.373Z,97.10
2018-09-23T06:04:08.441Z,97.00
2018-09-23T06:06:12.425Z,97.00
2018-09-23T06:08:17.425Z,96.90
2018-09-23T06:10:21.496Z,96.90
2018-09-23T06:12:25.613Z,96.90
2018-09-23T06:14:29.708Z,97.10
2018-09-23T06:16:33.733Z,97.00
2018-09-23T06:18:37.709Z,96.90
2018-09-23T06:20:41.969Z,96.90
2018-09-23T06:22:47.491Z,97.00
2018-09-23T06:24:51.440Z,96.80
2018-09-23T06:26:55.681Z,96.80
2018-09-23T06:28:59.736Z,96.50
2018-09-23T06:31:05.089Z,96.90
2018-09-23T06:33:09.302Z,96.70
2018-09-23T06:35:13.439Z,96.70
2018-09-23T06:37:18.302Z,96.60
2018-09-23T06:39:22.739Z,96.90
2018-09-23T06:41:27.393Z,96.90
2018-09-23T06:43:31.407Z,96.90
2018-09-23T06:45:35.715Z,97.00
2018-09-23T06:47:39.774Z,97.00
2018-09-23T06:49:43.719Z,97.30
2018-09-23T06:51:48.191Z,97.30
2018-09-23T06:53:52.407Z,97.50
2018-09-23T06:55:56.808Z,97.50
2018-09-23T06:58:01.334Z,97.50
2018-09-23T07:00:05.321Z,97.60
2018-09-23T07:02:10.168Z,97.60
2018-09-23T07:04:14.425Z,97.90
2018-09-23T07:06:19.051Z,97.80
2018-09-23T07:08:24.666Z,97.70
2018-09-23T07:10:29.755Z,97.50
2018-09-23T07:12:33.711Z,97.80
2018-09-23T07:14:39.625Z,97.80
2018-09-23T07:16:44.728Z,97.80
2018-09-23T07:18:48.684Z,97.60
2018-09-23T07:20:53.696Z,97.70
2018-09-23T07:22:57.628Z,97.70
2018-09-23T07:25:03.428Z,97.70
2018-09-23T07:27:07.678Z,97.60
2018-09-23T07:29:12.064Z,97.60
2018-09-23T07:31:20.914Z,97.70
2018-09-23T07:33:25.945Z,97.50
2018-09-23T07:35:30.690Z,97.30
2018-09-23T07:37:36.305Z,97.40
2018-09-23T07:39:41.816Z,97.50
2018-09-23T07:41:48.532Z,97.60
2018-09-23T07:43:54.644Z,97.70
2018-09-23T07:45:59.611Z,97.80
2018-09-23T07:48:06.648Z,97.90
2018-09-23T07:50:12.604Z,97.80
2018-09-23T07:52:19.402Z,97.70
2018-09-23T07:54:28.780Z,97.40
2018-09-23T07:56:33.235Z,97.30
2018-09-23T07:58:41.857Z,97.10
2018-09-23T08:00:46.073Z,96.90
2018-09-23T08:02:55.499Z,96.60
2018-09-23T08:05:06.635Z,97.20
2018-09-23T08:08:20.948Z,97.10
2018-09-23T08:10:28.767Z,97.10
2018-09-23T08:12:39.377Z,96.80
2018-09-23T08:14:46.151Z,97.00
2018-09-23T08:16:52.118Z,97.10
2018-09-23T08:19:00.649Z,97.30
2018-09-23T08:21:08.179Z,97.50
2018-09-23T08:23:15.820Z,97.60
2018-09-23T08:25:25.225Z,97.70
2018-09-23T08:27:30.783Z,98.00
2018-09-23T08:29:39.372Z,98.50
2018-09-23T08:31:46.092Z,98.50
2018-09-23T08:33:52.796Z,98.60
2018-09-23T08:35:58.326Z,99.30
2018-09-23T08:38:03.427Z,99.20
2018-09-23T08:40:28.736Z,99.40
2018-09-23T08:42:33.313Z,99.50
2018-09-23T08:44:38.673Z,99.90
2018-09-23T08:46:47.293Z,99.90
2018-09-23T08:48:51.429Z,99.90
2018-09-23T08:50:57.806Z,99.90
2018-09-23T08:53:03.417Z,99.90
2018-09-23T08:55:08.675Z,99.90
2018-09-23T08:57:13.936Z,99.90
2018-09-23T08:59:21.563Z,99.90
2018-09-23T09:01:27.685Z,99.90
2018-09-23T09:03:37.367Z,99.90
2018-09-23T09:05:44.527Z,99.90
2018-09-23T09:07:49.362Z,99.90
2018-09-23T09:09:55.235Z,99.90
2018-09-23T09:12:03.593Z,99.90
2018-09-23T09:14:09.454Z,99.90
2018-09-23T09:16:16.123Z,99.90
2018-09-23T09:18:22.544Z,99.90
2018-09-23T09:20:28.401Z,99.90
2018-09-23T09:22:38.436Z,99.90
2018-09-23T09:24:44.378Z,99.90
2018-09-23T09:26:48.584Z,99.90
2018-09-23T09:28:54.260Z,99.90
2018-09-23T09:30:59.408Z,99.90
2018-09-23T09:33:05.125Z,99.90
2018-09-23T09:35:18.542Z,99.90
2018-09-23T09:37:25.149Z,99.90
2018-09-23T09:39:32.001Z,99.00
2018-09-23T09:41:44.176Z,99.50
2018-09-23T09:43:48.479Z,99.40
2018-09-23T09:45:54.956Z,99.50
2018-09-23T09:47:59.367Z,99.50
2018-09-23T09:50:05.816Z,99.80
2018-09-23T09:52:13.262Z,99.60
2018-09-23T09:54:20.670Z,99.60
2018-09-23T09:56:26.106Z,99.70
2018-09-23T09:58:31.496Z,99.60
2018-09-23T10:00:37.667Z,99.70
2018-09-23T10:02:42.933Z,99.90
2018-09-23T10:04:54.458Z,99.70
2018-09-23T10:06:59.070Z,99.90
2018-09-23T10:09:14.722Z,99.90
2018-09-23T10:11:45.725Z,99.90
2018-09-23T10:13:49.997Z,99.70
2018-09-23T10:15:53.977Z,99.20
2018-09-23T10:17:58.651Z,99.30
2018-09-23T10:20:02.641Z,99.20
2018-09-23T10:22:07.590Z,99.10
2018-09-23T10:24:13.241Z,99.30
2018-09-23T10:26:18.223Z,99.30
2018-09-23T10:28:22.287Z,99.30
2018-09-23T10:30:29.613Z,98.90
2018-09-23T10:32:38.548Z,98.50
2018-09-23T10:34:44.373Z,98.70
2018-09-23T10:36:48.802Z,98.80
2018-09-23T10:38:54.974Z,98.80
2018-09-23T10:41:01.227Z,98.80
2018-09-23T10:43:05.562Z,99.10
2018-09-23T10:45:10.138Z,98.80
2018-09-23T10:47:14.555Z,98.70
2018-09-23T10:49:20.444Z,98.80
2018-09-23T10:51:24.456Z,99.00
2018-09-23T10:53:28.548Z,98.70
2018-09-23T10:55:32.801Z,98.80
2018-09-23T10:57:39.731Z,98.90
2018-09-23T10:59:43.713Z,99.00
2018-09-23T11:01:49.478Z,99.20
2018-09-23T11:03:54.183Z,99.00
2018-09-23T11:05:59.509Z,98.40
2018-09-23T11:08:03.814Z,98.10
2018-09-23T11:10:07.841Z,98.00
2018-09-23T11:12:12.664Z,98.20
2018-09-23T11:14:16.782Z,98.10
2018-09-23T11:16:21.549Z,98.20
2018-09-23T11:18:26.139Z,97.90
2018-09-23T11:20:32.810Z,98.00
2018-09-23T11:22:38.719Z,98.00
2018-09-23T11:24:43.868Z,98.20
2018-09-23T11:26:47.912Z,98.40
2018-09-23T11:28:51.914Z,98.50
2018-09-23T11:30:56.222Z,98.20
2018-09-23T11:33:00.217Z,98.50
2018-09-23T11:35:05.828Z,98.50
2018-09-23T11:37:11.285Z,98.40
2018-09-23T11:39:18.285Z,98.00
2018-09-23T11:41:22.832Z,97.40
2018-09-23T11:43:27.120Z,97.40
2018-09-23T11:45:31.882Z,97.30
2018-09-23T11:47:36.834Z,97.30
2018-09-23T11:49:42.149Z,97.40
2018-09-23T11:51:46.123Z,98.30
2018-09-23T11:53:50.421Z,99.20
2018-09-23T11:55:54.777Z,99.90
2018-09-23T12:00:15.873Z,99.90
2018-09-23T12:02:20.673Z,99.40
2018-09-23T12:04:28.382Z,99.10
2018-09-23T12:06:33.264Z,99.10
2018-09-23T12:08:38.479Z,98.20
2018-09-23T12:10:44.249Z,98.10
2018-09-23T12:12:53.435Z,97.90
2018-09-23T12:14:59.074Z,98.00
2018-09-23T12:17:03.502Z,98.10
2018-09-23T12:19:08.043Z,97.90
2018-09-23T12:21:13.464Z,98.00
2018-09-23T12:23:17.580Z,98.00
2018-09-23T12:25:23.715Z,98.30
2018-09-23T12:27:29.469Z,98.60
2018-09-23T12:29:36.009Z,98.60
2018-09-23T12:31:41.444Z,98.70
2018-09-23T12:33:46.722Z,98.50
2018-09-23T12:35:53.713Z,98.80
2018-09-23T12:37:57.761Z,98.60
2018-09-23T12:40:05.036Z,98.30
2018-09-23T12:42:10.584Z,98.50
2018-09-23T12:44:15.504Z,98.20
2018-09-23T12:46:20.306Z,98.30
2018-09-23T12:48:27.781Z,98.10
2018-09-23T12:50:31.762Z,98.00
2018-09-23T12:52:35.995Z,97.90
2018-09-23T12:54:42.808Z,97.90
2018-09-23T12:56:47.671Z,97.40
2018-09-23T12:58:53.744Z,98.00
2018-09-23T13:00:58.345Z,98.50
2018-09-23T13:03:03.945Z,98.80
2018-09-23T13:05:09.818Z,98.70
2018-09-23T13:07:14.822Z,98.40
2018-09-23T13:09:18.825Z,98.00
2018-09-23T13:11:24.332Z,97.50
2018-09-23T13:13:28.307Z,97.60
2018-09-23T13:15:32.358Z,97.80
2018-09-23T13:17:38.047Z,98.10
2018-09-23T13:19:43.318Z,97.90
2018-09-23T13:21:48.325Z,97.90
2018-09-23T13:23:53.548Z,97.80
2018-09-23T13:25:57.759Z,97.50
2018-09-23T13:28:02.797Z,97.80
2018-09-23T13:30:09.455Z,97.80
2018-09-23T13:32:14.134Z,97.00
2018-09-23T13:34:18.283Z,97.00
2018-09-23T13:36:22.577Z,96.80
2018-09-23T13:38:27.402Z,96.40
2018-09-23T13:40:31.989Z,95.90
2018-09-23T13:42:35.935Z,96.10
2018-09-23T13:44:41.147Z,95.90
2018-09-23T13:46:46.126Z,95.80
2018-09-23T13:48:50.351Z,95.40
2018-09-23T13:50:54.321Z,95.60
2018-09-23T13:52:58.247Z,95.90
2018-09-23T13:55:06.594Z,96.00
2018-09-23T13:57:10.635Z,96.10
2018-09-23T13:59:14.622Z,96.20
2018-09-23T14:01:18.987Z,96.00
2018-09-23T14:03:26.005Z,95.70
2018-09-23T14:05:30.336Z,95.30
2018-09-23T14:07:34.767Z,95.10
2018-09-23T14:09:39.836Z,94.80
2018-09-23T14:11:45.708Z,94.60
2018-09-23T14:13:50.533Z,94.70
2018-09-23T14:15:56.306Z,95.20
2018-09-23T14:18:00.330Z,95.40
2018-09-23T14:20:05.845Z,96.20
2018-09-23T14:22:09.982Z,97.00
2018-09-23T14:24:14.164Z,97.90
2018-09-23T14:26:19.058Z,96.30
2018-09-23T14:28:24.192Z,96.30
2018-09-23T14:30:29.364Z,98.20
2018-09-23T14:32:35.430Z,99.90
2018-09-23T14:34:40.597Z,99.90
2018-09-23T14:36:44.540Z,99.90
2018-09-23T14:38:48.988Z,99.90
2018-09-23T14:40:54.472Z,99.90
2018-09-23T14:43:00.532Z,99.90
2018-09-23T14:45:08.056Z,99.90
2018-09-23T14:47:12.232Z,99.80
2018-09-23T14:49:16.607Z,99.40
2018-09-23T14:51:22.256Z,99.40
2018-09-23T14:53:27.184Z,99.90
2018-09-23T14:55:34.842Z,99.90
2018-09-23T14:57:40.202Z,99.90
2018-09-23T14:59:54.191Z,99.90
2018-09-23T15:01:55.997Z,99.90
2018-09-23T15:04:06.298Z,99.90
2018-09-23T15:06:11.787Z,99.30
2018-09-23T15:08:15.873Z,98.90
2018-09-23T15:10:21.312Z,98.70
2018-09-23T15:12:27.594Z,98.50
2018-09-23T15:14:33.038Z,98.60
2018-09-23T15:16:37.910Z,98.60
2018-09-23T15:18:43.128Z,98.70
2018-09-23T15:20:47.306Z,98.70
2018-09-23T15:22:51.683Z,98.50
2018-09-23T15:24:55.673Z,98.10
2018-09-23T15:27:00.323Z,98.40
2018-09-23T15:29:04.576Z,98.50
2018-09-23T15:31:09.516Z,97.70
2018-09-23T15:33:15.621Z,97.30
2018-09-23T15:35:20.595Z,97.40
2018-09-23T15:37:25.602Z,97.30
2018-09-23T15:39:31.292Z,96.50
2018-09-23T15:41:36.353Z,96.70
2018-09-23T15:43:44.244Z,96.60
2018-09-23T15:45:53.263Z,96.60
2018-09-23T15:47:58.924Z,96.10
2018-09-23T15:50:03.695Z,96.20
2018-09-23T15:52:09.396Z,95.60
2018-09-23T15:54:16.301Z,96.00
2018-09-23T15:56:22.229Z,96.40
2018-09-23T16:00:44.682Z,96.60
2018-09-23T16:02:50.327Z,96.10
2018-09-23T16:04:57.657Z,96.30
2018-09-23T16:07:05.346Z,95.40
2018-09-23T16:09:10.653Z,95.30
2018-09-23T16:11:19.654Z,95.20
2018-09-23T16:13:25.624Z,95.50
2018-09-23T16:17:43.396Z,95.50
2018-09-23T16:19:50.331Z,95.90
2018-09-23T16:21:59.763Z,95.50
2018-09-23T16:24:06.134Z,94.90
2018-09-23T16:26:11.900Z,95.10
2018-09-23T16:28:16.472Z,95.20
2018-09-23T16:30:24.252Z,95.00
2018-09-23T16:32:29.586Z,95.20
2018-09-23T16:34:36.312Z,96.00
2018-09-23T16:36:41.338Z,96.70
2018-09-23T16:38:46.713Z,96.10
2018-09-23T16:40:52.467Z,96.40
2018-09-23T16:43:02.554Z,96.40
2018-09-23T16:45:09.565Z,96.30
2018-09-23T16:47:14.411Z,95.90
2018-09-23T16:49:22.729Z,95.60
2018-09-23T16:51:27.733Z,95.90
2018-09-23T16:53:37.546Z,96.60
2018-09-23T16:55:44.720Z,96.50
2018-09-23T16:57:50.755Z,97.00
2018-09-23T16:59:56.124Z,97.30
2018-09-23T17:02:02.004Z,98.00
2018-09-23T17:04:07.438Z,98.00
2018-09-23T17:06:14.694Z,98.90
2018-09-23T17:08:20.428Z,98.70
2018-09-23T17:10:27.908Z,97.80
2018-09-23T17:12:32.855Z,97.80
2018-09-23T17:14:36.850Z,97.40
2018-09-23T17:16:41.944Z,97.50
2018-09-23T17:18:46.989Z,97.50
2018-09-23T17:20:50.965Z,97.50
2018-09-23T17:22:57.609Z,96.80
2018-09-23T17:25:04.089Z,96.80
2018-09-23T17:27:09.707Z,96.40
2018-09-23T17:31:52.416Z,96.50
2018-09-23T17:33:58.282Z,96.60
2018-09-23T17:36:02.897Z,96.50
2018-09-23T17:38:07.752Z,96.60
2018-09-23T17:40:11.796Z,96.20
2018-09-23T17:42:17.524Z,95.70
2018-09-23T17:44:22.831Z,95.40
2018-09-23T17:46:26.756Z,95.20
2018-09-23T17:48:32.139Z,95.70
2018-09-23T17:50:36.763Z,95.70
2018-09-23T17:52:41.061Z,95.60
2018-09-23T17:54:47.037Z,95.60
2018-09-23T17:56:52.819Z,95.00
2018-09-23T17:58:57.496Z,95.70
2018-09-23T18:01:01.808Z,95.50
2018-09-23T18:03:07.243Z,95.00
2018-09-23T18:05:12.251Z,95.00
2018-09-23T18:07:18.743Z,94.70
2018-09-23T18:09:26.440Z,94.50
2018-09-23T18:11:38.825Z,94.80
2018-09-23T18:13:47.561Z,94.30
2018-09-23T18:15:55.251Z,94.50
2018-09-23T18:17:59.268Z,94.80
2018-09-23T18:20:04.487Z,95.00
2018-09-23T18:22:08.565Z,94.80
2018-09-23T18:24:13.321Z,95.00
2018-09-23T18:26:19.643Z,94.10
2018-09-23T18:28:24.336Z,94.80
2018-09-23T18:30:31.116Z,95.20
2018-09-23T18:32:35.789Z,95.70
2018-09-23T18:34:42.100Z,96.10
2018-09-23T18:36:48.368Z,96.50
2018-09-23T18:38:54.290Z,96.50
2018-09-23T18:40:58.283Z,97.20
2018-09-23T18:43:04.833Z,97.10
2018-09-23T18:45:09.528Z,97.00
2018-09-23T18:47:15.209Z,97.00
2018-09-23T18:49:22.930Z,96.10
2018-09-23T18:51:30.316Z,96.20
2018-09-23T18:53:35.045Z,96.10
2018-09-23T18:55:44.957Z,95.80
2018-09-23T18:57:50.178Z,95.80
2018-09-23T18:59:55.580Z,95.30
2018-09-23T19:02:01.141Z,95.40
2018-09-23T19:04:05.809Z,94.20
2018-09-23T19:06:11.695Z,93.90
2018-09-23T19:08:16.270Z,93.90
2018-09-23T19:10:22.513Z,93.90
2018-09-23T19:12:27.417Z,93.80
2018-09-23T19:14:35.755Z,93.70
2018-09-23T19:16:41.017Z,93.70
2018-09-23T19:18:46.699Z,92.80
2018-09-23T19:20:51.275Z,92.50
2018-09-23T19:23:00.684Z,92.20
2018-09-23T19:25:04.818Z,92.10
2018-09-23T19:27:09.680Z,91.90
2018-09-23T19:29:14.726Z,90.80
2018-09-23T19:31:21.616Z,91.00
2018-09-23T19:33:35.151Z,90.70
2018-09-23T19:35:51.425Z,91.00
2018-09-23T19:37:55.935Z,91.60
2018-09-23T19:40:00.486Z,92.10
2018-09-23T19:42:07.276Z,91.70
2018-09-23T19:44:11.265Z,92.10
2018-09-23T19:46:15.459Z,92.10
2018-09-23T19:48:20.816Z,92.10
2018-09-23T19:50:27.506Z,92.00
2018-09-23T19:52:31.403Z,91.90
2018-09-23T19:54:37.264Z,90.60
2018-09-23T19:56:41.219Z,90.70
2018-09-23T19:58:46.322Z,90.50
2018-09-23T20:00:50.365Z,90.60
2018-09-23T20:02:54.300Z,91.50
2018-09-23T20:04:59.389Z,91.80
2018-09-23T20:09:08.192Z,92.00
2018-09-23T20:11:13.250Z,91.30
2018-09-23T20:13:18.427Z,91.30
2018-09-23T20:15:28.193Z,91.90
2018-09-23T20:17:32.166Z,92.20
2018-09-23T20:19:38.252Z,92.00
2018-09-23T20:21:42.387Z,92.70
2018-09-23T20:23:47.248Z,93.00
2018-09-23T20:25:53.260Z,93.10
2018-09-23T20:30:57.482Z,92.40
2018-09-23T20:33:03.093Z,92.10
2018-09-23T20:35:07.916Z,92.00
2018-09-23T20:37:17.393Z,92.00
2018-09-23T20:40:01.917Z,91.40
2018-09-23T20:42:09.749Z,91.50
2018-09-23T20:44:15.310Z,91.90
2018-09-23T20:46:20.424Z,92.10
2018-09-23T20:48:29.832Z,92.10
2018-09-23T20:50:34.995Z,91.80
2018-09-23T20:52:39.594Z,92.00
2018-09-23T20:54:44.325Z,91.80
2018-09-23T20:56:48.468Z,91.40
2018-09-23T20:58:52.375Z,91.50
2018-09-23T21:00:57.712Z,91.40
2018-09-23T21:03:04.571Z,91.40
2018-09-23T21:05:10.152Z,91.30
2018-09-23T21:07:16.985Z,91.10
2018-09-23T21:09:23.357Z,90.80
2018-09-23T21:11:30.602Z,90.60
2018-09-23T21:13:36.199Z,90.60
2018-09-23T21:15:42.760Z,90.80
2018-09-23T21:17:46.851Z,90.80
2018-09-23T21:19:51.573Z,90.90
2018-09-23T21:21:56.853Z,91.00
2018-09-23T21:24:01.499Z,90.90
2018-09-23T21:26:06.540Z,90.90
2018-09-23T21:28:20.371Z,90.80
2018-09-23T21:30:25.961Z,90.70
2018-09-23T21:32:32.092Z,91.00
2018-09-23T21:34:39.200Z,90.50
2018-09-23T21:36:43.877Z,90.40
2018-09-23T21:38:49.357Z,90.70
2018-09-23T21:40:54.178Z,90.70
2018-09-23T21:43:00.634Z,90.50
2018-09-23T21:45:04.776Z,90.70
2018-09-23T21:47:09.333Z,90.60
2018-09-23T21:49:14.218Z,90.70
2018-09-23T21:51:18.544Z,90.80
2018-09-23T21:53:22.847Z,90.80
2018-09-23T21:55:27.543Z,90.80
2018-09-23T21:57:31.610Z,90.50
2018-09-23T21:59:36.704Z,90.80
2018-09-23T22:01:40.646Z,91.00
2018-09-23T22:03:45.664Z,90.90
2018-09-23T22:05:50.636Z,90.90
2018-09-23T22:07:55.299Z,91.00
2018-09-23T22:10:00.026Z,91.20
2018-09-23T22:12:04.036Z,91.30
2018-09-23T22:14:11.272Z,91.10
2018-09-23T22:16:16.433Z,91.00
2018-09-23T22:18:20.725Z,91.10
2018-09-23T22:20:25.740Z,91.60
2018-09-23T22:22:29.729Z,91.60
2018-09-23T22:24:33.772Z,92.10
2018-09-23T22:26:38.060Z,92.20
2018-09-23T22:28:42.185Z,92.30
2018-09-23T22:30:47.712Z,92.20
2018-09-23T22:32:51.705Z,92.00
2018-09-23T22:34:55.672Z,91.90
2018-09-23T22:36:59.736Z,91.90
2018-09-23T22:39:05.114Z,92.10
2018-09-23T22:41:11.459Z,91.70
2018-09-23T22:43:16.011Z,91.90
2018-09-23T22:45:21.916Z,91.90
2018-09-23T22:47:26.043Z,91.70
2018-09-23T22:49:31.931Z,91.70
2018-09-23T22:51:37.793Z,91.60
2018-09-23T22:53:41.954Z,91.40
2018-09-23T22:55:46.511Z,91.40
2018-09-23T22:57:52.781Z,91.30
2018-09-23T22:59:58.688Z,91.40
2018-09-23T23:02:02.781Z,91.30
2018-09-23T23:04:07.209Z,91.60
2018-09-23T23:06:11.157Z,91.60
2018-09-23T23:08:15.173Z,91.70
2018-09-23T23:10:20.432Z,91.60
2018-09-23T23:12:24.484Z,91.40
2018-09-23T23:14:29.448Z,91.30
2018-09-23T23:16:33.851Z,91.20
2018-09-23T23:18:38.820Z,91.10
2018-09-23T23:20:45.148Z,91.10
2018-09-23T23:22:52.384Z,91.00
2018-09-23T23:24:56.409Z,90.90
2018-09-23T23:27:00.623Z,90.70
2018-09-23T23:29:11.282Z,90.50
2018-09-23T23:31:16.087Z,90.70
2018-09-23T23:33:20.090Z,91.00
2018-09-23T23:35:25.568Z,91.10
2018-09-23T23:37:30.328Z,91.10
2018-09-23T23:39:34.544Z,91.10
2018-09-23T23:41:38.571Z,91.30
2018-09-23T23:43:43.376Z,91.30
2018-09-23T23:45:49.152Z,91.40
2018-09-23T23:47:53.760Z,91.50
2018-09-23T23:49:58.331Z,91.70
2018-09-23T23:52:02.236Z,91.90
2018-09-23T23:54:08.125Z,91.90
2018-09-23T23:56:13.373Z,92.00
2018-09-23T23:58:21.222Z,92.10
